Historyczne dane pomiarowe

Dodano dane terminowe – wersja testowa.

Dane z okresu 1951-2019

Wersja bazy: 1.34 [2019-03-16, lista zmian], aktualizacja planowana na 2019-04-15

Dane meteo z obszaru Polski uzyskane na podstawie danych udostępnionych przez Instytut Meteorologii i Gospodarki Wodnej – Państwowy Instytut Badawczy.

 

Wybierz Datę:    

       

TemperaturaWilgotnośćWiatrCiśnienieOpadyŚniegCzas trwania zjawisk
 Stacja t tx tn tng RH VA  wxwx mslp ppp RRR   cm mm wxwxwxwxwxwxwx
1987-08-14 13.3 17.4 8.2- 74.5- 5.0 0.7---- 0.0------------
1987-08-13 8.4 15.4 1.3- 84.8- 5.7 0.7---- 0.0------------
1987-08-12 10.7 16.4 4.3- 81.0- 5.7 1.3---- 0.2------------
1987-08-11 10.4 15.4 6.3- 89.8- 7.7 0.7---- 4.6------------
1987-08-10 12.2 16.6 7.3- 82.0- 7.3 1.0---- 12.2------------
1987-08-09 11.6 20.5 1.1- 75.3- 1.7 0.7---- 0.0------------
1987-08-08 12.0 17.2 9.0- 87.5- 4.3 0.7---- 0.0------------
1987-08-07 9.7 15.4 0.8- 81.3- 5.0 1.7---- 0.0------------
1987-08-06 9.2 13.9 7.4- 89.8- 6.7 0.7---- 5.7------------
1987-08-05 12.4 15.4 10.8- 84.8- 8.0 0.3---- 2.0------------
1987-08-04 14.1 19.6 7.5- 82.0- 7.3 1.7---- 9.3------------
1987-08-03 13.7 18.0 7.5- 80.5- 6.0 0.7---- 0.0------------
1987-08-02 12.2 16.0 11.1- 87.8- 7.3 1.7---- 0.4------------
1987-08-01 13.3 19.1 11.3- 88.0- 6.3 0.3---- 4.2------------
1987-07-31 15.2 22.7 5.4- 74.3- 7.0 2.0---- 6.8------------
1987-07-30 12.6 19.7 3.8- 78.3- 2.7 1.0---- 0.0------------
1987-07-29 11.4 16.3 9.2- 85.5- 6.0 0.7---- 0.5------------
1987-07-28 11.4 13.7 7.2- 79.0- 6.7 2.3---- 1.4------------
1987-07-27 12.0 16.6 8.2- 76.3- 4.7 1.3---- 0.0------------
1987-07-26 15.0 19.2 11.3- 96.3- 7.3 0.3---- 21.9------------
1987-07-25 17.6 22.9 14.6- 90.8- 6.0 1.3---- 9.3------------
1987-07-24 20.0 29.6 12.0- 83.0- 5.3 0.3---- 17.0------------
1987-07-23 19.6 27.6 13.4- 76.8- 1.7 0.7---- 0.0------------
1987-07-22 20.7 27.3 11.6- 76.5- 2.3 1.0---- 0.0------------
1987-07-21 21.1 28.6 12.4- 75.3- 3.7 1.0---- 0.0------------
1987-07-20 22.8 30.0 13.0- 72.0- 1.3 1.3---- 0.0------------
1987-07-19 21.6 29.2 12.1- 78.0- 0.0 1.3---- 0.0------------
1987-07-18 21.6 27.0 15.5- 79.5- 4.7 1.3---- 0.0------------
1987-07-17 19.0 26.9 9.0- 77.5- 5.3 2.3---- 3.3------------
1987-07-16 15.7 24.9 6.5- 84.0- 3.3 1.0---- 0.0------------
1987-07-15 13.9 21.8 4.5- 76.3- 1.0 0.3---- 0.0------------
1987-07-14 15.8 20.1 13.1- 73.0- 3.3 1.0---- 0.0------------
1987-07-13 19.0 22.7 14.6- 81.8- 6.0 0.7---- 0.0------------
1987-07-12 19.1 23.9 8.0- 59.5- 1.0 4.7---- 3.0------------
1987-07-11 12.9 21.6 3.2- 71.5- 0.0 1.0---- 0.0------------
1987-07-10 13.7 17.8 11.3- 81.5- 4.7 1.0---- 0.0------------
1987-07-09 18.2 24.9 9.5- 79.0- 3.3 1.7---- 13.7------------
1987-07-08 16.4 24.3 3.7- 67.3- 0.0 0.7---- 0.0------------
1987-07-07 14.9 24.3 2.4- 75.5- 0.0 0.7---- 0.0------------
1987-07-06 15.3 19.0 7.5- 65.0- 0.3 1.3---- 0.0------------
1987-07-05 13.3 18.0 6.3- 81.3- 6.3 1.7---- 0.0------------
1987-07-04 17.2 20.8 14.6- 77.3- 6.3 1.0---- 0.0------------
1987-07-03 18.1 20.6 16.2- 86.0- 6.7 0.7---- 0.0------------
1987-07-02 18.8 27.1 11.5- 90.5- 5.7 0.7---- 0.5------------
1987-07-01 20.7 27.7 11.2- 78.5- 0.0 0.3---- 0.0------------
1987-06-30 18.5 27.3 9.0- 81.3- 1.3 0.7---- 0.0------------
1987-06-29 17.4 22.7 10.4- 80.8- 3.0 1.0---- 0.0------------
1987-06-28 17.0 23.5 11.1- 86.5- 5.3 0.7---- 0.0------------
1987-06-27 16.9 24.3 6.8- 75.8- 4.7 1.7---- 0.0------------
1987-06-26 13.1 20.3 5.6- 78.5- 3.0 0.7---- 0.0------------
1987-06-25 13.0 17.4 8.6- 83.8- 5.3 0.7---- 12.4------------
1987-06-24 13.5 18.3 7.5- 90.5- 6.7 0.3---- 0.1------------
1987-06-23 13.2 17.8 10.7- 93.0- 7.3 0.7---- 1.8------------
1987-06-22 12.9 21.8 7.5- 88.3- 6.0 0.0---- 5.1------------
1987-06-21 12.2 21.9 3.6- 85.5- 3.7 0.7---- 14.8------------
1987-06-20 12.1 20.8 1.2- 74.5- 0.7 0.7---- 0.0------------
1987-06-19 10.3 16.8 3.1- 83.0- 4.3 1.0---- 0.0------------
1987-06-18 8.7 15.9 3.2- 81.0- 3.7 2.0---- 0.6------------
1987-06-17 9.0 12.0 7.8- 91.5- 5.3 0.7---- 5.3------------
1987-06-16 17.8 24.4 10.9- 69.8- 6.7 2.3---- 27.4------------
333.2 ms

 

Źródłem pochodzenia danych jest Instytut Meteorologii i Gospodarki Wodnej – Państwowy Instytut Badawczy. Dane Instytutu Meteorologii i Gospodarki Wodnej – Państwowego Instytutu Badawczego zostały przetworzone.

Dane źródłowe można odnaleźć na stronie https://dane.imgw.pl